createdAt,value
2023-02-25T00:00:24.416Z,94953.78
2023-02-25T00:02:53.009Z,94953.13
2023-02-25T00:05:22.882Z,94949.19
2023-02-25T00:07:51.513Z,94942.16
2023-02-25T00:10:20.028Z,94940.50
2023-02-25T00:13:12.222Z,94937.25
2023-02-25T00:15:45.586Z,94932.16
2023-02-25T00:18:13.965Z,94933.63
2023-02-25T00:20:43.645Z,94935.91
2023-02-25T00:23:12.108Z,94946.88
2023-02-25T00:25:40.550Z,94953.78
2023-02-25T00:28:08.972Z,94974.28
2023-02-25T00:30:40.206Z,94975.59
2023-02-25T00:33:08.966Z,94994.97
2023-02-25T00:35:40.204Z,94989.75
2023-02-25T00:38:15.967Z,94997.16
2023-02-25T00:40:44.823Z,95014.22
2023-02-25T00:43:13.151Z,95004.59
2023-02-25T00:45:41.451Z,95011.09
2023-02-25T00:48:09.999Z,95008.00
2023-02-25T00:50:39.613Z,95009.00
2023-02-25T00:53:09.320Z,95013.56
2023-02-25T00:55:37.674Z,95038.91
2023-02-25T00:58:06.153Z,95046.78
2023-02-25T01:00:46.468Z,95071.47
2023-02-25T01:03:19.549Z,95066.25
2023-02-25T01:05:49.556Z,95067.41
2023-02-25T01:08:21.017Z,95057.25
2023-02-25T01:10:49.710Z,95064.78
2023-02-25T01:13:18.035Z,95071.03
2023-02-25T01:15:46.386Z,95086.44
2023-02-25T01:18:14.764Z,95077.91
2023-02-25T01:20:43.144Z,95083.47
2023-02-25T01:23:11.597Z,95081.00
2023-02-25T01:25:42.048Z,95098.03
2023-02-25T01:28:10.449Z,95097.34
2023-02-25T01:30:39.150Z,95094.25
2023-02-25T01:33:07.503Z,95105.81
2023-02-25T01:35:37.381Z,95108.41
2023-02-25T01:38:05.759Z,95101.53
2023-02-25T01:40:34.034Z,95097.28
2023-02-25T01:43:03.757Z,95089.06
2023-02-25T01:45:33.936Z,95094.56
2023-02-25T01:48:10.568Z,95098.63
2023-02-25T01:50:44.410Z,95102.56
2023-02-25T01:53:13.671Z,95105.69
2023-02-25T01:55:43.146Z,95103.94
2023-02-25T01:58:13.835Z,95104.75
2023-02-25T02:00:42.987Z,95090.81
2023-02-25T02:03:16.057Z,95079.53
2023-02-25T02:05:56.034Z,95093.91
2023-02-25T02:08:26.384Z,95094.03
2023-02-25T02:10:55.814Z,95094.53
2023-02-25T02:13:26.009Z,95083.72
2023-02-25T02:16:04.357Z,95087.50
2023-02-25T02:18:36.410Z,95093.91
2023-02-25T02:21:21.343Z,95091.84
2023-02-25T02:24:27.445Z,95095.44
2023-02-25T02:27:02.343Z,95078.41
2023-02-25T02:30:05.059Z,95080.28
2023-02-25T02:32:42.302Z,95060.00
2023-02-25T02:35:19.873Z,95077.06
2023-02-25T02:38:04.278Z,95080.50
2023-02-25T02:40:44.605Z,95088.19
2023-02-25T02:43:24.968Z,95093.59
2023-02-25T02:46:00.123Z,95107.03
2023-02-25T02:48:37.368Z,95102.13
2023-02-25T02:51:13.026Z,95104.06
2023-02-25T02:53:47.120Z,95108.31
2023-02-25T02:56:19.259Z,95095.34
2023-02-25T02:58:50.658Z,95103.03
2023-02-25T03:01:24.183Z,95101.88
2023-02-25T03:04:00.095Z,95108.22
2023-02-25T03:06:32.500Z,95122.59
2023-02-25T03:09:07.164Z,95115.38
2023-02-25T03:11:35.958Z,95125.66
2023-02-25T03:14:04.565Z,95127.13
2023-02-25T03:16:38.431Z,95125.59
2023-02-25T03:19:12.526Z,95124.50
2023-02-25T03:21:44.309Z,95114.69
2023-02-25T03:24:22.471Z,95121.03
2023-02-25T03:26:52.261Z,95108.13
2023-02-25T03:29:23.558Z,95106.47
2023-02-25T03:31:57.512Z,95107.63
2023-02-25T03:34:31.656Z,95105.31
2023-02-25T03:37:03.324Z,95110.25
2023-02-25T03:39:40.204Z,95102.06
2023-02-25T03:42:13.258Z,95102.44
2023-02-25T03:44:46.548Z,95101.28
2023-02-25T03:47:16.882Z,95102.94
2023-02-25T03:49:51.709Z,95121.75
2023-02-25T03:52:24.270Z,95122.72
2023-02-25T03:54:53.284Z,95121.25
2023-02-25T03:57:24.988Z,95123.22
2023-02-25T03:59:56.272Z,95124.22
2023-02-25T04:02:28.370Z,95115.03
2023-02-25T04:04:58.538Z,95131.50
2023-02-25T04:07:27.278Z,95133.78
2023-02-25T04:09:55.709Z,95121.66
2023-02-25T04:12:24.028Z,95124.13
2023-02-25T04:14:52.402Z,95127.09
2023-02-25T04:17:20.738Z,95130.16
2023-02-25T04:19:49.171Z,95132.09
2023-02-25T04:22:18.930Z,95135.72
2023-02-25T04:24:47.263Z,95135.50
2023-02-25T04:27:16.350Z,95144.25
2023-02-25T04:29:45.568Z,95141.97
2023-02-25T04:32:14.053Z,95135.97
2023-02-25T04:34:42.494Z,95139.25
2023-02-25T04:37:10.840Z,95131.53
2023-02-25T04:39:41.579Z,95129.44
2023-02-25T04:42:10.512Z,95141.03
2023-02-25T04:44:38.865Z,95134.97
2023-02-25T04:47:08.515Z,95130.22
2023-02-25T04:49:44.672Z,95130.38
2023-02-25T04:52:13.795Z,95130.53
2023-02-25T04:54:43.833Z,95130.66
2023-02-25T04:57:12.981Z,95124.28
2023-02-25T04:59:41.570Z,95123.41
2023-02-25T05:02:10.916Z,95119.75
2023-02-25T05:04:40.189Z,95128.06
2023-02-25T05:07:08.971Z,95131.50
2023-02-25T05:09:37.373Z,95123.78
2023-02-25T05:12:07.957Z,95129.03
2023-02-25T05:14:38.226Z,95122.16
2023-02-25T05:17:06.555Z,95133.44
2023-02-25T05:19:34.888Z,95131.81
2023-02-25T05:22:06.011Z,95134.09
2023-02-25T05:24:34.531Z,95135.59
2023-02-25T05:27:08.452Z,95145.06
2023-02-25T05:29:38.165Z,95137.91
2023-02-25T05:32:07.239Z,95141.19
2023-02-25T05:34:36.432Z,95145.75
2023-02-25T05:37:04.874Z,95139.03
2023-02-25T05:39:33.208Z,95145.22
2023-02-25T05:42:01.514Z,95146.22
2023-02-25T05:44:30.757Z,95152.25
2023-02-25T05:47:00.469Z,95155.53
2023-02-25T05:49:29.609Z,95162.91
2023-02-25T05:51:57.924Z,95151.63
2023-02-25T05:54:26.442Z,95167.69
2023-02-25T05:56:55.031Z,95171.94
2023-02-25T05:59:23.325Z,95159.13
2023-02-25T06:01:51.736Z,95179.56
2023-02-25T06:04:22.219Z,95180.91
2023-02-25T06:06:51.867Z,95176.16
2023-02-25T06:09:21.201Z,95188.38
2023-02-25T06:11:50.393Z,95192.13
2023-02-25T06:14:18.718Z,95195.41
2023-02-25T06:16:47.114Z,95185.31
2023-02-25T06:19:15.590Z,95190.75
2023-02-25T06:21:45.239Z,95192.94
2023-02-25T06:24:13.790Z,95198.16
2023-02-25T06:26:42.795Z,95206.81
2023-02-25T06:29:11.309Z,95206.00
2023-02-25T06:31:40.427Z,95205.38
2023-02-25T06:34:08.831Z,95208.34
2023-02-25T06:36:37.153Z,95208.19
2023-02-25T06:39:06.879Z,95213.94
2023-02-25T06:41:35.409Z,95208.09
2023-02-25T06:44:04.350Z,95212.50
2023-02-25T06:46:33.005Z,95219.53
2023-02-25T06:49:01.365Z,95225.44
2023-02-25T06:51:29.712Z,95225.97
2023-02-25T06:53:58.045Z,95234.31
2023-02-25T06:56:29.140Z,95232.81
2023-02-25T06:58:59.160Z,95240.47
2023-02-25T07:01:28.234Z,95241.91
2023-02-25T07:03:56.644Z,95244.81
2023-02-25T07:06:31.988Z,95242.19
2023-02-25T07:09:00.483Z,95245.66
2023-02-25T07:11:34.567Z,95245.66
2023-02-25T07:14:03.798Z,95241.75
2023-02-25T07:16:34.264Z,95235.38
2023-02-25T07:19:03.171Z,95243.53
2023-02-25T07:21:32.136Z,95245.78
2023-02-25T07:24:01.056Z,95228.16
2023-02-25T07:26:30.865Z,95230.16
2023-02-25T07:29:00.111Z,95234.16
2023-02-25T07:31:29.303Z,95226.16
2023-02-25T07:34:03.335Z,95221.25
2023-02-25T07:36:33.089Z,95230.41
2023-02-25T07:39:03.512Z,95236.97
2023-02-25T07:41:33.224Z,95239.44
2023-02-25T07:44:02.108Z,95239.66
2023-02-25T07:46:31.610Z,95239.69
2023-02-25T07:49:00.109Z,95242.16
2023-02-25T07:51:28.545Z,95245.91
2023-02-25T07:53:58.528Z,95240.69
2023-02-25T07:56:29.255Z,95236.06
2023-02-25T07:58:59.118Z,95233.69
2023-02-25T08:01:29.786Z,95235.56
2023-02-25T08:04:00.528Z,95230.53
2023-02-25T08:06:29.286Z,95238.81
2023-02-25T08:08:58.137Z,95234.88
2023-02-25T08:11:27.942Z,95233.56
2023-02-25T08:13:56.359Z,95230.66
2023-02-25T08:16:26.168Z,95229.69
2023-02-25T08:18:54.922Z,95223.16
2023-02-25T08:21:24.642Z,95229.75
2023-02-25T08:23:54.318Z,95225.63
2023-02-25T08:26:24.155Z,95229.53
2023-02-25T08:28:52.892Z,95228.25
2023-02-25T08:31:22.782Z,95219.44
2023-02-25T08:33:53.904Z,95216.69
2023-02-25T08:36:24.053Z,95213.53
2023-02-25T08:38:53.486Z,95215.78
2023-02-25T08:41:23.805Z,95214.47
2023-02-25T08:43:54.468Z,95212.66
2023-02-25T08:46:23.714Z,95209.22
2023-02-25T08:48:55.035Z,95212.22
2023-02-25T08:51:33.849Z,95204.19
2023-02-25T08:54:04.360Z,95201.91
2023-02-25T08:56:32.845Z,95199.25
2023-02-25T08:59:01.338Z,95205.28
2023-02-25T09:01:44.428Z,95197.44
2023-02-25T09:04:15.622Z,95202.34
2023-02-25T09:06:47.244Z,95212.00
2023-02-25T09:09:16.234Z,95203.09
2023-02-25T09:11:45.809Z,95199.63
2023-02-25T09:14:15.447Z,95201.59
2023-02-25T09:16:44.203Z,95208.34
2023-02-25T09:19:15.808Z,95218.44
2023-02-25T09:21:44.762Z,95211.72
2023-02-25T09:24:13.836Z,95216.81
2023-02-25T09:26:42.174Z,95216.94
2023-02-25T09:29:10.729Z,95219.50
2023-02-25T09:31:39.908Z,95211.22
2023-02-25T09:34:13.658Z,95205.22
2023-02-25T09:36:43.810Z,95214.91
2023-02-25T09:39:12.530Z,95211.53
2023-02-25T09:41:55.633Z,95209.94
2023-02-25T09:44:29.525Z,95213.41
2023-02-25T09:47:03.635Z,95208.53
2023-02-25T09:49:37.571Z,95213.63
2023-02-25T09:52:16.874Z,95206.09
2023-02-25T09:54:47.472Z,95209.72
2023-02-25T09:57:20.002Z,95211.53
2023-02-25T09:59:49.340Z,95221.50
2023-02-25T10:02:34.785Z,95216.75
2023-02-25T10:05:15.483Z,95211.97
2023-02-25T10:08:02.244Z,95218.63
2023-02-25T10:10:39.305Z,95222.03
2023-02-25T10:13:20.539Z,95219.56
2023-02-25T10:16:00.227Z,95211.06
2023-02-25T10:18:47.261Z,95222.50
2023-02-25T10:21:25.194Z,95214.34
2023-02-25T10:24:14.432Z,95212.06
2023-02-25T10:26:47.331Z,95208.84
2023-02-25T10:29:22.944Z,95208.06
2023-02-25T10:31:57.136Z,95201.38
2023-02-25T10:34:28.250Z,95203.41
2023-02-25T10:36:58.515Z,95199.50
2023-02-25T10:39:31.362Z,95201.97
2023-02-25T10:41:59.701Z,95208.16
2023-02-25T10:44:28.364Z,95205.03
2023-02-25T10:47:01.475Z,95209.75
2023-02-25T10:49:37.987Z,95204.50
2023-02-25T10:52:10.256Z,95211.19
2023-02-25T10:54:49.226Z,95208.56
2023-02-25T10:57:20.056Z,95214.47
2023-02-25T10:59:49.446Z,95205.31
2023-02-25T11:02:23.762Z,95206.44
2023-02-25T11:04:56.280Z,95196.47
2023-02-25T11:07:31.668Z,95196.25
2023-02-25T11:10:16.555Z,95191.47
2023-02-25T11:12:47.213Z,95201.22
2023-02-25T11:15:46.464Z,95200.03
2023-02-25T11:18:23.050Z,95196.41
2023-02-25T11:20:54.620Z,95194.47
2023-02-25T11:23:28.106Z,95190.84
2023-02-25T11:25:58.297Z,95189.56
2023-02-25T11:28:32.914Z,95186.94
2023-02-25T11:31:11.794Z,95189.75
2023-02-25T11:33:43.809Z,95179.78
2023-02-25T11:36:12.999Z,95186.66
2023-02-25T11:38:42.719Z,95186.66
2023-02-25T11:41:23.063Z,95193.31
2023-02-25T11:43:51.728Z,95191.66
2023-02-25T11:46:23.978Z,95180.41
2023-02-25T11:48:54.853Z,95182.19
2023-02-25T11:51:27.524Z,95179.44
2023-02-25T11:54:13.983Z,95171.44
2023-02-25T11:56:48.761Z,95172.53
2023-02-25T11:59:38.135Z,95172.91
2023-02-25T12:02:32.010Z,95169.31
2023-02-25T12:05:23.992Z,95162.91
2023-02-25T12:08:18.879Z,95167.69
2023-02-25T12:11:19.628Z,95160.78
2023-02-25T12:14:35.000Z,95162.75
2023-02-25T12:17:35.802Z,95160.28
2023-02-25T12:21:01.215Z,95155.88
2023-02-25T12:24:16.823Z,95154.56
2023-02-25T12:27:10.671Z,95159.94
2023-02-25T12:30:00.375Z,95157.47
2023-02-25T12:32:53.922Z,95150.63
2023-02-25T12:35:41.516Z,95153.72
2023-02-25T12:38:41.383Z,95145.06
2023-02-25T12:41:30.211Z,95146.53
2023-02-25T12:44:15.529Z,95148.34
2023-02-25T12:46:59.033Z,95150.44
2023-02-25T12:49:55.843Z,95143.88
2023-02-25T12:52:35.429Z,95151.88
2023-02-25T12:55:48.314Z,95150.63
2023-02-25T12:58:40.882Z,95157.59
2023-02-25T13:01:38.934Z,95154.28
2023-02-25T13:05:08.029Z,95157.19
2023-02-25T13:08:04.537Z,95155.75
2023-02-25T13:10:47.599Z,95148.41
2023-02-25T13:13:46.325Z,95149.22
2023-02-25T13:16:25.056Z,95153.66
2023-02-25T13:19:10.598Z,95159.84
2023-02-25T13:21:58.409Z,95147.91
2023-02-25T13:24:39.229Z,95148.41
2023-02-25T13:27:33.373Z,95148.09
2023-02-25T13:30:16.397Z,95148.28
2023-02-25T13:32:56.926Z,95149.88
2023-02-25T13:35:40.275Z,95150.56
2023-02-25T13:38:20.986Z,95145.03
2023-02-25T13:40:59.727Z,95147.16
2023-02-25T13:43:56.112Z,95140.50
2023-02-25T13:46:50.734Z,95140.50
2023-02-25T13:49:39.001Z,95142.78
2023-02-25T13:52:25.867Z,95135.38
2023-02-25T13:55:46.794Z,95139.66
2023-02-25T13:58:42.487Z,95134.88
2023-02-25T14:01:34.882Z,95145.66
2023-02-25T14:04:35.231Z,95145.00
2023-02-25T14:07:20.341Z,95147.25
2023-02-25T14:09:58.543Z,95141.84
2023-02-25T14:12:44.268Z,95145.13
2023-02-25T14:15:32.546Z,95144.81
2023-02-25T14:18:25.141Z,95155.13
2023-02-25T14:21:07.597Z,95151.53
2023-02-25T14:23:46.671Z,95148.59
2023-02-25T14:26:34.500Z,95149.78
2023-02-25T14:29:21.853Z,95154.38
2023-02-25T14:32:02.317Z,95151.47
2023-02-25T14:34:45.975Z,95153.13
2023-02-25T14:37:32.233Z,95153.13
2023-02-25T14:40:20.734Z,95148.03
2023-02-25T14:43:08.223Z,95145.94
2023-02-25T14:45:44.546Z,95144.13
2023-02-25T14:48:19.445Z,95148.72
2023-02-25T14:50:53.415Z,95151.97
2023-02-25T14:53:56.426Z,95145.94
2023-02-25T14:56:58.623Z,95144.28
2023-02-25T14:59:55.308Z,95151.47
2023-02-25T15:02:45.271Z,95155.53
2023-02-25T15:05:33.713Z,95153.38
2023-02-25T15:08:37.717Z,95150.09
2023-02-25T15:11:21.176Z,95150.25
2023-02-25T15:14:17.112Z,95157.44
2023-02-25T15:17:33.937Z,95148.28
2023-02-25T15:20:26.382Z,95157.41
2023-02-25T15:23:05.327Z,95158.00
2023-02-25T15:25:40.414Z,95151.75
2023-02-25T15:28:51.271Z,95155.00
2023-02-25T15:31:31.444Z,95156.25
2023-02-25T15:34:39.656Z,95161.31
2023-02-25T15:37:34.212Z,95163.13
2023-02-25T15:40:20.229Z,95159.69
2023-02-25T15:42:51.529Z,95159.84
2023-02-25T15:45:36.937Z,95159.19
2023-02-25T15:48:31.630Z,95169.50
2023-02-25T15:51:01.520Z,95167.75
2023-02-25T15:53:49.022Z,95172.34
2023-02-25T15:56:41.199Z,95174.34
2023-02-25T15:59:09.553Z,95183.38
2023-02-25T16:01:42.496Z,95182.94
2023-02-25T16:04:50.217Z,95176.72
2023-02-25T16:07:22.259Z,95196.66
2023-02-25T16:09:57.983Z,95197.34
2023-02-25T16:12:27.616Z,95200.91
2023-02-25T16:14:57.792Z,95194.19
2023-02-25T16:17:31.911Z,95195.50
2023-02-25T16:20:06.881Z,95205.28
2023-02-25T16:22:36.452Z,95206.41
2023-02-25T16:25:15.151Z,95210.81
2023-02-25T16:27:58.394Z,95214.41
2023-02-25T16:30:32.439Z,95228.09
2023-02-25T16:33:08.324Z,95221.69
2023-02-25T16:35:42.795Z,95220.63
2023-02-25T16:38:19.953Z,95211.59
2023-02-25T16:40:49.787Z,95211.53
2023-02-25T16:43:23.084Z,95223.72
2023-02-25T16:45:57.361Z,95220.88
2023-02-25T16:48:29.885Z,95219.53
2023-02-25T16:50:58.390Z,95233.03
2023-02-25T16:53:28.369Z,95226.47
2023-02-25T16:56:01.652Z,95225.00
2023-02-25T16:58:31.118Z,95230.34
2023-02-25T17:01:02.415Z,95226.25
2023-02-25T17:03:40.982Z,95227.22
2023-02-25T17:06:16.365Z,95226.69
2023-02-25T17:08:45.984Z,95228.63
2023-02-25T17:11:18.102Z,95233.19
2023-02-25T17:13:49.611Z,95236.91
2023-02-25T17:16:21.559Z,95238.72
2023-02-25T17:18:54.001Z,95251.78
2023-02-25T17:21:26.746Z,95243.75
2023-02-25T17:23:56.410Z,95246.53
2023-02-25T17:26:26.647Z,95245.88
2023-02-25T17:28:57.747Z,95250.41
2023-02-25T17:31:27.852Z,95255.47
2023-02-25T17:33:58.251Z,95255.66
2023-02-25T17:36:29.037Z,95260.56
2023-02-25T17:39:00.757Z,95264.38
2023-02-25T17:41:30.970Z,95258.19
2023-02-25T17:43:59.330Z,95264.22
2023-02-25T17:46:39.387Z,95269.59
2023-02-25T17:49:21.369Z,95266.19
2023-02-25T17:51:55.340Z,95264.09
2023-02-25T17:54:26.410Z,95263.91
2023-02-25T17:57:00.993Z,95260.34
2023-02-25T17:59:38.866Z,95264.09
2023-02-25T18:02:35.630Z,95260.94
2023-02-25T18:05:22.559Z,95265.66
2023-02-25T18:08:10.456Z,95259.22
2023-02-25T18:10:47.638Z,95257.88
2023-02-25T18:13:38.608Z,95265.69
2023-02-25T18:16:25.059Z,95270.91
2023-02-25T18:18:55.303Z,95282.19
2023-02-25T18:21:24.181Z,95284.13
2023-02-25T18:23:53.392Z,95283.97
2023-02-25T18:26:25.119Z,95273.25
2023-02-25T18:28:57.497Z,95274.28
2023-02-25T18:31:26.140Z,95281.16
2023-02-25T18:33:55.026Z,95283.66
2023-02-25T18:36:26.834Z,95273.69
2023-02-25T18:38:58.301Z,95272.97
2023-02-25T18:41:26.690Z,95270.06
2023-02-25T18:43:56.395Z,95266.19
2023-02-25T18:46:25.026Z,95258.22
2023-02-25T18:48:53.665Z,95268.66
2023-02-25T18:51:22.012Z,95267.00
2023-02-25T18:53:50.336Z,95271.13
2023-02-25T18:56:18.883Z,95274.84
2023-02-25T18:58:47.171Z,95278.44
2023-02-25T19:01:23.483Z,95288.50
2023-02-25T19:03:53.803Z,95280.28
2023-02-25T19:06:22.298Z,95306.69
2023-02-25T19:08:50.769Z,95318.34
2023-02-25T19:11:22.272Z,95304.84
2023-02-25T19:13:51.029Z,95313.81
2023-02-25T19:16:23.340Z,95311.78
2023-02-25T19:18:52.168Z,95321.03
2023-02-25T19:21:22.326Z,95309.06
2023-02-25T19:23:52.161Z,95323.53
2023-02-25T19:26:20.964Z,95328.75
2023-02-25T19:28:49.333Z,95334.81
2023-02-25T19:31:18.793Z,95346.88
2023-02-25T19:33:48.603Z,95350.22
2023-02-25T19:36:16.936Z,95347.09
2023-02-25T19:38:45.291Z,95349.53
2023-02-25T19:41:14.486Z,95357.22
2023-02-25T19:43:42.846Z,95350.38
2023-02-25T19:46:11.527Z,95353.81
2023-02-25T19:48:39.901Z,95357.66
2023-02-25T19:51:10.652Z,95352.16
2023-02-25T19:53:39.379Z,95351.34
2023-02-25T19:56:08.358Z,95347.75
2023-02-25T19:58:36.981Z,95353.94
2023-02-25T20:01:08.261Z,95357.38
2023-02-25T20:03:37.578Z,95357.38
2023-02-25T20:06:13.634Z,95358.34
2023-02-25T20:08:46.741Z,95364.38
2023-02-25T20:11:15.821Z,95359.84
2023-02-25T20:13:45.086Z,95362.44
2023-02-25T20:16:14.070Z,95367.53
2023-02-25T20:18:42.662Z,95367.25
2023-02-25T20:21:12.824Z,95369.03
2023-02-25T20:23:41.305Z,95367.94
2023-02-25T20:26:12.637Z,95371.22
2023-02-25T20:28:41.837Z,95375.47
2023-02-25T20:31:13.227Z,95382.34
2023-02-25T20:33:42.110Z,95380.56
2023-02-25T20:36:21.059Z,95386.59
2023-02-25T20:39:04.209Z,95381.09
2023-02-25T20:41:33.087Z,95383.41
2023-02-25T20:44:01.759Z,95377.09
2023-02-25T20:46:30.700Z,95381.19
2023-02-25T20:48:59.975Z,95370.47
2023-02-25T20:51:30.555Z,95373.75
2023-02-25T20:53:59.327Z,95376.91
2023-02-25T20:56:30.454Z,95377.03
2023-02-25T20:58:59.401Z,95373.75
2023-02-25T21:01:27.829Z,95382.16
2023-02-25T21:03:56.623Z,95376.81
2023-02-25T21:06:26.774Z,95379.75
2023-02-25T21:08:56.807Z,95384.78
2023-02-25T21:11:25.975Z,95378.75
2023-02-25T21:13:57.006Z,95374.34
2023-02-25T21:16:25.950Z,95375.56
2023-02-25T21:18:54.783Z,95374.34
2023-02-25T21:21:23.191Z,95370.59
2023-02-25T21:23:52.684Z,95375.50
2023-02-25T21:26:22.884Z,95382.53
2023-02-25T21:28:51.933Z,95385.47
2023-02-25T21:31:20.547Z,95382.00
2023-02-25T21:33:49.001Z,95372.00
2023-02-25T21:36:17.365Z,95374.47
2023-02-25T21:38:45.990Z,95365.78
2023-02-25T21:41:15.969Z,95362.63
2023-02-25T21:43:45.852Z,95364.25
2023-02-25T21:46:16.344Z,95358.34
2023-02-25T21:48:47.371Z,95361.28
2023-02-25T21:51:17.718Z,95360.00
2023-02-25T21:53:46.525Z,95368.53
2023-02-25T21:56:17.224Z,95362.44
2023-02-25T21:58:47.293Z,95358.88
2023-02-25T22:01:17.985Z,95360.38
2023-02-25T22:03:47.504Z,95356.00
2023-02-25T22:06:16.395Z,95353.06
2023-02-25T22:08:46.503Z,95354.72
2023-02-25T22:11:16.297Z,95348.97
2023-02-25T22:13:46.329Z,95348.97
2023-02-25T22:16:16.048Z,95346.09
2023-02-25T22:18:44.644Z,95345.75
2023-02-25T22:21:14.918Z,95344.09
2023-02-25T22:23:44.126Z,95343.28
2023-02-25T22:26:14.998Z,95343.28
2023-02-25T22:28:44.761Z,95342.59
2023-02-25T22:31:18.877Z,95347.81
2023-02-25T22:33:47.462Z,95338.91
2023-02-25T22:36:18.207Z,95336.97
2023-02-25T22:38:48.554Z,95345.34
2023-02-25T22:41:19.138Z,95346.16
2023-02-25T22:43:48.410Z,95338.50
2023-02-25T22:46:22.330Z,95336.69
2023-02-25T22:48:51.589Z,95337.09
2023-02-25T22:51:21.939Z,95332.34
2023-02-25T22:53:50.965Z,95332.59
2023-02-25T22:56:19.402Z,95339.75
2023-02-25T22:58:48.329Z,95337.59
2023-02-25T23:01:21.109Z,95339.53
2023-02-25T23:03:51.021Z,95353.03
2023-02-25T23:06:24.991Z,95345.91
2023-02-25T23:08:57.686Z,95354.81
2023-02-25T23:11:28.284Z,95353.91
2023-02-25T23:13:58.515Z,95353.13
2023-02-25T23:16:30.235Z,95360.25
2023-02-25T23:19:00.544Z,95356.13
2023-02-25T23:21:30.292Z,95366.44
2023-02-25T23:24:00.423Z,95356.97
2023-02-25T23:26:33.856Z,95358.22
2023-02-25T23:29:03.919Z,95363.59
2023-02-25T23:31:36.176Z,95363.34
2023-02-25T23:34:06.721Z,95365.69
2023-02-25T23:36:35.158Z,95366.22
2023-02-25T23:39:06.103Z,95368.00
2023-02-25T23:41:35.990Z,95371.72
2023-02-25T23:44:05.201Z,95386.38
2023-02-25T23:46:35.343Z,95386.13
2023-02-25T23:49:06.465Z,95385.84
2023-02-25T23:51:35.632Z,95381.47
2023-02-25T23:54:06.473Z,95391.91
2023-02-25T23:56:36.076Z,95391.03
2023-02-25T23:59:10.577Z,95402.16
